ユジノサハリンスク の空港の天気 - METARとTAF

ホムトヴォ空港(ユジノサハリンスク) ( UHSS / UUS ) - ロシア ユジノサハリンスク
飛行場実況気象(Metar)
観測時間02/06 07:00 VLAT (02/05 21:00 UTC)
風向・風速北東 1m/s
視程6000m
天気現象弱いしゅう雪
全天の8割程度の雲 雲底高度 910m
気温-17℃
湿度77%
気圧1016hPa
METARUHSS 052100Z 04001MPS 6000 -SHSN BKN030CB M17/M20 Q1016 R01/810360 NOSIG RMK MT OBSC QFE761/1015
過去の天気等 Google飛行場航空写真 Wunderground天気予報

過去48時間のMETAR

飛行場予報(TAF)
発表時間: 2/06 06:00 VLAT (2/05 20:00 UTC)
予報対象時間: 6日7時 VLAT ~ 7日13時 VLAT
風向・風速北 3m/s
視程10km以上
全天の8割程度の積乱雲 雲底高度 910m
6日7時 VLAT ~ 7日13時 VLAT に一時的に
天気現象弱いしゅう雪
TAF COR UHSS 052000Z 0521/0703 36003MPS 9999 BKN030CB
TEMPO 0521/0703 -SHSN